sensor_id;sensor_type;location;lat;lon;timestamp;pressure;altitude;pressure_sealevel;temperature;humidity
5500;BME280;2772;42.700;23.304;2023-05-10T00:01:10;95304.88;;;11.98;100.00
5500;BME280;2772;42.700;23.304;2023-05-10T00:03:37;95304.69;;;11.86;100.00
5500;BME280;2772;42.700;23.304;2023-05-10T00:06:04;95304.06;;;11.89;100.00
5500;BME280;2772;42.700;23.304;2023-05-10T00:08:32;95300.59;;;11.88;100.00
5500;BME280;2772;42.700;23.304;2023-05-10T00:10:59;95298.09;;;11.92;100.00
5500;BME280;2772;42.700;23.304;2023-05-10T00:13:25;95296.53;;;11.91;100.00
5500;BME280;2772;42.700;23.304;2023-05-10T00:15:52;95294.50;;;11.88;100.00
5500;BME280;2772;42.700;23.304;2023-05-10T00:18:19;95281.91;;;11.88;100.00
5500;BME280;2772;42.700;23.304;2023-05-10T00:20:46;95290.41;;;11.90;100.00
5500;BME280;2772;42.700;23.304;2023-05-10T00:23:14;95289.78;;;11.85;100.00
5500;BME280;2772;42.700;23.304;2023-05-10T00:25:42;95284.44;;;11.85;100.00
5500;BME280;2772;42.700;23.304;2023-05-10T00:28:09;95284.28;;;11.90;100.00
5500;BME280;2772;42.700;23.304;2023-05-10T00:30:35;95286.47;;;11.88;100.00
5500;BME280;2772;42.700;23.304;2023-05-10T00:33:02;95290.34;;;11.73;100.00
5500;BME280;2772;42.700;23.304;2023-05-10T00:35:29;95290.78;;;11.67;100.00
5500;BME280;2772;42.700;23.304;2023-05-10T00:37:56;95288.91;;;11.67;100.00
5500;BME280;2772;42.700;23.304;2023-05-10T00:40:22;95289.41;;;11.69;100.00
5500;BME280;2772;42.700;23.304;2023-05-10T00:42:51;95290.47;;;11.68;100.00
5500;BME280;2772;42.700;23.304;2023-05-10T00:45:17;95278.88;;;11.73;100.00
5500;BME280;2772;42.700;23.304;2023-05-10T00:47:44;95284.38;;;11.68;100.00
5500;BME280;2772;42.700;23.304;2023-05-10T00:50:11;95284.97;;;11.65;100.00
5500;BME280;2772;42.700;23.304;2023-05-10T00:52:38;95281.31;;;11.61;100.00
5500;BME280;2772;42.700;23.304;2023-05-10T00:55:06;95274.72;;;11.58;100.00
5500;BME280;2772;42.700;23.304;2023-05-10T00:57:33;95278.56;;;11.66;100.00
5500;BME280;2772;42.700;23.304;2023-05-10T01:00:02;95268.19;;;11.64;100.00
5500;BME280;2772;42.700;23.304;2023-05-10T01:02:30;95275.41;;;11.64;100.00
5500;BME280;2772;42.700;23.304;2023-05-10T01:04:56;95282.06;;;11.53;100.00
5500;BME280;2772;42.700;23.304;2023-05-10T01:07:23;95277.84;;;11.52;100.00
5500;BME280;2772;42.700;23.304;2023-05-10T01:09:50;95273.56;;;11.51;100.00
5500;BME280;2772;42.700;23.304;2023-05-10T01:12:16;95287.31;;;11.36;100.00
5500;BME280;2772;42.700;23.304;2023-05-10T01:14:43;95278.53;;;11.35;100.00
5500;BME280;2772;42.700;23.304;2023-05-10T01:17:12;95276.72;;;11.53;100.00
5500;BME280;2772;42.700;23.304;2023-05-10T01:19:40;95269.31;;;11.41;100.00
5500;BME280;2772;42.700;23.304;2023-05-10T01:22:29;95278.06;;;11.33;100.00
5500;BME280;2772;42.700;23.304;2023-05-10T01:25:24;95266.91;;;11.31;100.00
5500;BME280;2772;42.700;23.304;2023-05-10T01:34:02;95265.69;;;11.37;100.00
5500;BME280;2772;42.700;23.304;2023-05-10T01:36:45;95257.78;;;11.23;100.00
5500;BME280;2772;42.700;23.304;2023-05-10T01:39:18;95268.38;;;11.15;100.00
5500;BME280;2772;42.700;23.304;2023-05-10T01:41:51;95254.28;;;11.14;100.00
5500;BME280;2772;42.700;23.304;2023-05-10T01:44:25;95258.03;;;11.13;100.00
5500;BME280;2772;42.700;23.304;2023-05-10T01:46:58;95254.28;;;11.14;100.00
5500;BME280;2772;42.700;23.304;2023-05-10T01:49:31;95248.28;;;11.09;100.00
5500;BME280;2772;42.700;23.304;2023-05-10T01:52:01;95253.97;;;11.16;100.00
5500;BME280;2772;42.700;23.304;2023-05-10T01:54:31;95251.56;;;11.06;100.00
5500;BME280;2772;42.700;23.304;2023-05-10T01:57:02;95260.50;;;11.10;100.00
5500;BME280;2772;42.700;23.304;2023-05-10T01:59:34;95263.47;;;11.08;100.00
5500;BME280;2772;42.700;23.304;2023-05-10T02:02:05;95257.50;;;11.03;100.00
5500;BME280;2772;42.700;23.304;2023-05-10T02:04:35;95262.53;;;11.04;100.00
5500;BME280;2772;42.700;23.304;2023-05-10T02:07:04;95258.59;;;11.02;100.00
5500;BME280;2772;42.700;23.304;2023-05-10T02:09:32;95257.19;;;11.04;100.00
5500;BME280;2772;42.700;23.304;2023-05-10T02:12:02;95259.75;;;11.09;100.00
5500;BME280;2772;42.700;23.304;2023-05-10T02:14:32;95264.47;;;11.12;100.00
5500;BME280;2772;42.700;23.304;2023-05-10T02:17:02;95270.13;;;11.19;100.00
5500;BME280;2772;42.700;23.304;2023-05-10T02:19:31;95271.16;;;11.10;100.00
5500;BME280;2772;42.700;23.304;2023-05-10T02:22:00;95277.31;;;10.88;100.00
5500;BME280;2772;42.700;23.304;2023-05-10T02:24:28;95282.56;;;10.58;100.00
5500;BME280;2772;42.700;23.304;2023-05-10T02:26:57;95281.78;;;10.57;100.00
5500;BME280;2772;42.700;23.304;2023-05-10T02:29:25;95290.78;;;10.48;100.00
5500;BME280;2772;42.700;23.304;2023-05-10T02:31:54;95283.97;;;10.55;100.00
5500;BME280;2772;42.700;23.304;2023-05-10T02:34:23;95268.03;;;10.42;100.00
5500;BME280;2772;42.700;23.304;2023-05-10T02:36:52;95283.81;;;10.38;100.00
5500;BME280;2772;42.700;23.304;2023-05-10T02:39:21;95282.63;;;10.44;100.00
5500;BME280;2772;42.700;23.304;2023-05-10T02:41:49;95271.50;;;10.42;100.00
5500;BME280;2772;42.700;23.304;2023-05-10T02:44:18;95282.25;;;10.37;100.00
5500;BME280;2772;42.700;23.304;2023-05-10T02:46:45;95290.38;;;10.19;100.00
5500;BME280;2772;42.700;23.304;2023-05-10T02:49:13;95300.63;;;10.25;100.00
5500;BME280;2772;42.700;23.304;2023-05-10T02:51:41;95289.56;;;10.18;100.00
5500;BME280;2772;42.700;23.304;2023-05-10T02:54:12;95284.09;;;10.15;100.00
5500;BME280;2772;42.700;23.304;2023-05-10T02:56:45;95288.91;;;10.13;100.00
5500;BME280;2772;42.700;23.304;2023-05-10T02:59:13;95298.97;;;10.16;100.00
5500;BME280;2772;42.700;23.304;2023-05-10T03:01:40;95294.72;;;10.15;100.00
5500;BME280;2772;42.700;23.304;2023-05-10T03:04:07;95299.91;;;10.20;100.00
5500;BME280;2772;42.700;23.304;2023-05-10T03:06:34;95306.72;;;9.99;100.00
5500;BME280;2772;42.700;23.304;2023-05-10T03:09:02;95303.28;;;9.98;100.00
5500;BME280;2772;42.700;23.304;2023-05-10T03:11:39;95311.25;;;9.98;100.00
5500;BME280;2772;42.700;23.304;2023-05-10T03:14:20;95311.25;;;9.98;100.00
5500;BME280;2772;42.700;23.304;2023-05-10T03:16:56;95301.91;;;10.01;100.00
5500;BME280;2772;42.700;23.304;2023-05-10T03:19:30;95313.41;;;9.96;100.00
5500;BME280;2772;42.700;23.304;2023-05-10T03:22:01;95304.28;;;10.02;100.00
5500;BME280;2772;42.700;23.304;2023-05-10T03:24:32;95306.84;;;10.07;100.00
5500;BME280;2772;42.700;23.304;2023-05-10T03:27:01;95317.38;;;10.12;100.00
5500;BME280;2772;42.700;23.304;2023-05-10T03:29:31;95324.19;;;10.18;100.00
5500;BME280;2772;42.700;23.304;2023-05-10T03:31:58;95316.50;;;10.17;100.00
5500;BME280;2772;42.700;23.304;2023-05-10T03:34:25;95318.78;;;10.10;100.00
5500;BME280;2772;42.700;23.304;2023-05-10T03:36:52;95315.09;;;9.92;100.00
5500;BME280;2772;42.700;23.304;2023-05-10T03:39:19;95320.13;;;9.94;100.00
5500;BME280;2772;42.700;23.304;2023-05-10T03:41:46;95319.94;;;9.90;100.00
5500;BME280;2772;42.700;23.304;2023-05-10T03:44:13;95317.88;;;10.01;100.00
5500;BME280;2772;42.700;23.304;2023-05-10T03:46:41;95315.63;;;10.08;100.00
5500;BME280;2772;42.700;23.304;2023-05-10T03:49:08;95325.06;;;10.14;100.00
5500;BME280;2772;42.700;23.304;2023-05-10T03:51:34;95326.03;;;10.04;100.00
5500;BME280;2772;42.700;23.304;2023-05-10T03:54:01;95328.41;;;10.06;100.00
5500;BME280;2772;42.700;23.304;2023-05-10T03:56:28;95331.56;;;9.94;100.00
5500;BME280;2772;42.700;23.304;2023-05-10T03:58:55;95333.34;;;9.99;100.00
5500;BME280;2772;42.700;23.304;2023-05-10T04:01:22;95342.81;;;9.91;100.00
5500;BME280;2772;42.700;23.304;2023-05-10T04:03:50;95333.13;;;9.95;100.00
5500;BME280;2772;42.700;23.304;2023-05-10T04:06:16;95343.69;;;10.00;100.00
5500;BME280;2772;42.700;23.304;2023-05-10T04:08:43;95338.28;;;10.05;100.00
5500;BME280;2772;42.700;23.304;2023-05-10T04:11:11;95342.22;;;9.94;100.00
5500;BME280;2772;42.700;23.304;2023-05-10T04:13:38;95337.06;;;9.84;100.00
5500;BME280;2772;42.700;23.304;2023-05-10T04:16:05;95339.66;;;9.89;100.00
5500;BME280;2772;42.700;23.304;2023-05-10T04:18:32;95346.91;;;9.84;100.00
5500;BME280;2772;42.700;23.304;2023-05-10T04:21:00;95345.72;;;9.76;100.00
5500;BME280;2772;42.700;23.304;2023-05-10T04:23:27;95340.63;;;9.80;100.00
5500;BME280;2772;42.700;23.304;2023-05-10T04:26:20;95342.81;;;9.91;100.00
5500;BME280;2772;42.700;23.304;2023-05-10T04:28:47;95343.19;;;9.98;100.00
5500;BME280;2772;42.700;23.304;2023-05-10T04:31:14;95341.13;;;9.95;100.00
5500;BME280;2772;42.700;23.304;2023-05-10T04:33:40;95340.63;;;9.80;100.00
5500;BME280;2772;42.700;23.304;2023-05-10T04:36:09;95346.06;;;9.88;100.00
5500;BME280;2772;42.700;23.304;2023-05-10T04:38:35;95347.81;;;9.93;100.00
5500;BME280;2772;42.700;23.304;2023-05-10T04:41:06;95342.38;;;9.98;100.00
5500;BME280;2772;42.700;23.304;2023-05-10T04:43:33;95342.00;;;9.91;100.00
5500;BME280;2772;42.700;23.304;2023-05-10T04:46:00;95345.53;;;10.00;100.00
5500;BME280;2772;42.700;23.304;2023-05-10T04:48:27;95340.44;;;10.03;100.00
5500;BME280;2772;42.700;23.304;2023-05-10T04:50:53;95339.56;;;9.94;100.00
5500;BME280;2772;42.700;23.304;2023-05-10T04:53:22;95349.13;;;10.09;100.00
5500;BME280;2772;42.700;23.304;2023-05-10T04:55:49;95345.94;;;9.93;100.00
5500;BME280;2772;42.700;23.304;2023-05-10T04:58:16;95349.41;;;10.07;100.00
5500;BME280;2772;42.700;23.304;2023-05-10T05:00:42;95345.47;;;10.18;100.00
5500;BME280;2772;42.700;23.304;2023-05-10T05:03:09;95348.22;;;10.27;100.00
5500;BME280;2772;42.700;23.304;2023-05-10T05:05:36;95356.00;;;10.23;100.00
5500;BME280;2772;42.700;23.304;2023-05-10T05:08:03;95356.41;;;10.30;100.00
5500;BME280;2772;42.700;23.304;2023-05-10T05:10:31;95352.66;;;10.31;100.00
5500;BME280;2772;42.700;23.304;2023-05-10T05:12:58;95352.75;;;10.26;100.00
5500;BME280;2772;42.700;23.304;2023-05-10T05:15:25;95351.59;;;10.19;100.00
5500;BME280;2772;42.700;23.304;2023-05-10T05:17:52;95354.44;;;10.22;100.00
5500;BME280;2772;42.700;23.304;2023-05-10T05:20:19;95355.03;;;10.33;100.00
5500;BME280;2772;42.700;23.304;2023-05-10T05:22:46;95353.63;;;10.35;100.00
5500;BME280;2772;42.700;23.304;2023-05-10T05:25:13;95355.00;;;10.46;100.00
5500;BME280;2772;42.700;23.304;2023-05-10T05:27:41;95366.25;;;10.43;100.00
5500;BME280;2772;42.700;23.304;2023-05-10T05:30:09;95351.97;;;10.39;100.00
5500;BME280;2772;42.700;23.304;2023-05-10T05:32:36;95359.53;;;10.46;100.00
5500;BME280;2772;42.700;23.304;2023-05-10T05:35:03;95371.47;;;10.48;100.00
5500;BME280;2772;42.700;23.304;2023-05-10T05:37:30;95371.66;;;10.52;100.00
5500;BME280;2772;42.700;23.304;2023-05-10T05:39:57;95360.25;;;10.38;100.00
5500;BME280;2772;42.700;23.304;2023-05-10T05:42:25;95375.66;;;10.27;100.00
5500;BME280;2772;42.700;23.304;2023-05-10T05:44:53;95369.00;;;10.38;100.00
5500;BME280;2772;42.700;23.304;2023-05-10T05:47:20;95365.00;;;10.27;100.00
5500;BME280;2772;42.700;23.304;2023-05-10T05:49:47;95369.44;;;10.32;100.00
5500;BME280;2772;42.700;23.304;2023-05-10T05:52:13;95366.84;;;10.40;100.00
5500;BME280;2772;42.700;23.304;2023-05-10T05:54:40;95372.56;;;10.34;100.00
5500;BME280;2772;42.700;23.304;2023-05-10T05:57:07;95369.25;;;10.64;100.00
5500;BME280;2772;42.700;23.304;2023-05-10T05:59:34;95353.31;;;10.86;100.00
5500;BME280;2772;42.700;23.304;2023-05-10T06:02:02;95333.38;;;11.27;100.00
5500;BME280;2772;42.700;23.304;2023-05-10T06:04:29;95342.47;;;11.27;100.00
5500;BME280;2772;42.700;23.304;2023-05-10T06:06:55;95345.94;;;11.05;100.00
5500;BME280;2772;42.700;23.304;2023-05-10T06:09:22;95373.47;;;10.78;100.00
5500;BME280;2772;42.700;23.304;2023-05-10T06:11:50;95369.75;;;10.66;100.00
5500;BME280;2772;42.700;23.304;2023-05-10T06:14:16;95375.28;;;10.69;100.00
5500;BME280;2772;42.700;23.304;2023-05-10T06:16:43;95371.72;;;10.60;100.00
5500;BME280;2772;42.700;23.304;2023-05-10T06:19:11;95373.78;;;10.63;100.00
5500;BME280;2772;42.700;23.304;2023-05-10T06:21:38;95380.81;;;10.59;100.00
5500;BME280;2772;42.700;23.304;2023-05-10T06:24:06;95377.28;;;10.50;100.00
5500;BME280;2772;42.700;23.304;2023-05-10T06:26:33;95380.41;;;10.52;100.00
5500;BME280;2772;42.700;23.304;2023-05-10T06:28:59;95388.72;;;10.51;100.00
5500;BME280;2772;42.700;23.304;2023-05-10T06:31:26;95385.75;;;10.52;100.00
5500;BME280;2772;42.700;23.304;2023-05-10T06:33:53;95383.88;;;10.53;100.00
5500;BME280;2772;42.700;23.304;2023-05-10T06:36:21;95384.28;;;10.60;100.00
5500;BME280;2772;42.700;23.304;2023-05-10T06:38:50;95386.28;;;10.76;100.00
5500;BME280;2772;42.700;23.304;2023-05-10T06:41:16;95392.72;;;10.75;100.00
5500;BME280;2772;42.700;23.304;2023-05-10T06:43:43;95392.22;;;10.73;100.00
5500;BME280;2772;42.700;23.304;2023-05-10T06:46:10;95388.56;;;10.83;100.00
5500;BME280;2772;42.700;23.304;2023-05-10T06:48:36;95393.38;;;10.81;100.00
5500;BME280;2772;42.700;23.304;2023-05-10T06:51:03;95391.47;;;10.95;100.00
5500;BME280;2772;42.700;23.304;2023-05-10T06:53:31;95392.56;;;10.94;100.00
5500;BME280;2772;42.700;23.304;2023-05-10T06:55:58;95407.25;;;10.91;100.00
5500;BME280;2772;42.700;23.304;2023-05-10T06:58:25;95394.38;;;11.07;100.00
5500;BME280;2772;42.700;23.304;2023-05-10T07:00:51;95397.84;;;11.07;100.00
5500;BME280;2772;42.700;23.304;2023-05-10T07:03:18;95394.38;;;11.07;100.00
5500;BME280;2772;42.700;23.304;2023-05-10T07:05:45;95408.69;;;11.11;100.00
5500;BME280;2772;42.700;23.304;2023-05-10T07:08:11;95409.66;;;11.15;100.00
5500;BME280;2772;42.700;23.304;2023-05-10T07:10:40;95411.84;;;11.13;100.00
5500;BME280;2772;42.700;23.304;2023-05-10T07:13:06;95396.09;;;11.25;100.00
5500;BME280;2772;42.700;23.304;2023-05-10T07:15:33;95392.41;;;11.35;100.00
5500;BME280;2772;42.700;23.304;2023-05-10T07:18:00;95398.59;;;11.21;100.00
5500;BME280;2772;42.700;23.304;2023-05-10T07:20:26;95408.53;;;11.30;100.00
5500;BME280;2772;42.700;23.304;2023-05-10T07:22:53;95402.88;;;11.31;100.00
5500;BME280;2772;42.700;23.304;2023-05-10T07:25:20;95404.03;;;11.39;100.00
5500;BME280;2772;42.700;23.304;2023-05-10T07:27:48;95415.91;;;11.33;100.00
5500;BME280;2772;42.700;23.304;2023-05-10T07:30:16;95418.47;;;11.15;100.00
5500;BME280;2772;42.700;23.304;2023-05-10T07:32:42;95417.13;;;11.27;100.00
5500;BME280;2772;42.700;23.304;2023-05-10T07:35:09;95414.47;;;11.49;100.00
5500;BME280;2772;42.700;23.304;2023-05-10T07:37:36;95420.16;;;11.34;100.00
5500;BME280;2772;42.700;23.304;2023-05-10T07:40:03;95421.50;;;11.45;100.00
5500;BME280;2772;42.700;23.304;2023-05-10T07:42:30;95422.09;;;11.42;100.00
5500;BME280;2772;42.700;23.304;2023-05-10T07:44:58;95423.56;;;11.26;100.00
5500;BME280;2772;42.700;23.304;2023-05-10T07:47:25;95424.75;;;11.42;100.00
5500;BME280;2772;42.700;23.304;2023-05-10T07:49:51;95422.63;;;11.66;100.00
5500;BME280;2772;42.700;23.304;2023-05-10T07:52:18;95420.25;;;11.64;100.00
5500;BME280;2772;42.700;23.304;2023-05-10T07:54:45;95420.28;;;11.73;100.00
5500;BME280;2772;42.700;23.304;2023-05-10T07:57:11;95416.44;;;11.87;100.00
5500;BME280;2772;42.700;23.304;2023-05-10T07:59:39;95423.81;;;11.82;100.00
5500;BME280;2772;42.700;23.304;2023-05-10T08:02:08;95432.41;;;11.79;100.00
5500;BME280;2772;42.700;23.304;2023-05-10T08:04:34;95423.97;;;11.85;100.00
5500;BME280;2772;42.700;23.304;2023-05-10T08:07:01;95429.69;;;12.01;100.00
5500;BME280;2772;42.700;23.304;2023-05-10T08:09:28;95432.22;;;11.97;100.00
5500;BME280;2772;42.700;23.304;2023-05-10T08:11:55;95433.34;;;12.05;100.00
5500;BME280;2772;42.700;23.304;2023-05-10T08:14:21;95438.41;;;12.15;100.00
5500;BME280;2772;42.700;23.304;2023-05-10T08:16:48;95437.16;;;12.21;100.00
5500;BME280;2772;42.700;23.304;2023-05-10T08:19:16;95435.50;;;12.33;100.00
5500;BME280;2772;42.700;23.304;2023-05-10T08:21:44;95439.19;;;12.15;100.00
5500;BME280;2772;42.700;23.304;2023-05-10T08:24:11;95436.91;;;12.31;100.00
5500;BME280;2772;42.700;23.304;2023-05-10T08:26:38;95443.19;;;12.26;100.00
5500;BME280;2772;42.700;23.304;2023-05-10T08:29:04;95436.03;;;12.13;100.00
5500;BME280;2772;42.700;23.304;2023-05-10T08:31:31;95433.00;;;12.37;100.00
5500;BME280;2772;42.700;23.304;2023-05-10T08:33:58;95438.06;;;12.47;100.00
5500;BME280;2772;42.700;23.304;2023-05-10T08:36:27;95440.31;;;12.53;100.00
5500;BME280;2772;42.700;23.304;2023-05-10T08:38:54;95435.91;;;12.57;100.00
5500;BME280;2772;42.700;23.304;2023-05-10T08:41:21;95431.34;;;12.58;100.00
5500;BME280;2772;42.700;23.304;2023-05-10T08:43:50;95428.25;;;12.73;100.00
5500;BME280;2772;42.700;23.304;2023-05-10T08:46:18;95441.78;;;12.85;100.00
5500;BME280;2772;42.700;23.304;2023-05-10T08:48:45;95448.06;;;12.72;100.00
5500;BME280;2772;42.700;23.304;2023-05-10T08:51:14;95445.84;;;12.74;100.00
5500;BME280;2772;42.700;23.304;2023-05-10T08:53:43;95450.56;;;12.68;100.00
5500;BME280;2772;42.700;23.304;2023-05-10T08:56:10;95446.31;;;12.76;100.00
5500;BME280;2772;42.700;23.304;2023-05-10T08:58:37;95436.25;;;12.73;100.00
5500;BME280;2772;42.700;23.304;2023-05-10T09:01:05;95444.44;;;12.85;100.00
5500;BME280;2772;42.700;23.304;2023-05-10T09:03:31;95446.97;;;12.90;100.00
5500;BME280;2772;42.700;23.304;2023-05-10T09:05:58;95434.59;;;12.94;100.00
5500;BME280;2772;42.700;23.304;2023-05-10T09:08:25;95440.75;;;13.03;100.00
5500;BME280;2772;42.700;23.304;2023-05-10T09:10:54;95441.41;;;13.17;100.00
5500;BME280;2772;42.700;23.304;2023-05-10T09:13:22;95444.06;;;13.26;100.00
5500;BME280;2772;42.700;23.304;2023-05-10T09:15:49;95444.84;;;13.09;100.00
5500;BME280;2772;42.700;23.304;2023-05-10T09:18:16;95441.50;;;12.95;100.00
5500;BME280;2772;42.700;23.304;2023-05-10T09:20:43;95449.34;;;12.83;100.00
5500;BME280;2772;42.700;23.304;2023-05-10T09:23:10;95446.31;;;12.76;100.00
5500;BME280;2772;42.700;23.304;2023-05-10T09:25:36;95439.75;;;12.99;100.00
5500;BME280;2772;42.700;23.304;2023-05-10T09:28:07;95431.56;;;12.78;100.00
5500;BME280;2772;42.700;23.304;2023-05-10T09:30:35;95429.06;;;12.99;100.00
5500;BME280;2772;42.700;23.304;2023-05-10T09:33:02;95436.66;;;13.06;100.00
5500;BME280;2772;42.700;23.304;2023-05-10T09:35:30;95434.25;;;12.87;100.00
5500;BME280;2772;42.700;23.304;2023-05-10T09:38:00;95433.44;;;12.78;100.00
5500;BME280;2772;42.700;23.304;2023-05-10T09:40:28;95443.97;;;12.66;100.00
5500;BME280;2772;42.700;23.304;2023-05-10T09:42:57;95436.06;;;12.61;100.00
5500;BME280;2772;42.700;23.304;2023-05-10T09:45:27;95430.84;;;12.47;100.00
5500;BME280;2772;42.700;23.304;2023-05-10T09:47:54;95429.56;;;12.45;100.00
5500;BME280;2772;42.700;23.304;2023-05-10T09:50:22;95434.16;;;12.53;100.00
5500;BME280;2772;42.700;23.304;2023-05-10T09:52:50;95425.13;;;12.88;100.00
5500;BME280;2772;42.700;23.304;2023-05-10T09:55:18;95421.72;;;13.05;100.00
5500;BME280;2772;42.700;23.304;2023-05-10T09:57:45;95420.63;;;13.14;100.00
5500;BME280;2772;42.700;23.304;2023-05-10T10:00:17;95419.31;;;12.95;100.00
5500;BME280;2772;42.700;23.304;2023-05-10T10:02:47;95427.97;;;12.92;100.00
5500;BME280;2772;42.700;23.304;2023-05-10T10:05:14;95414.75;;;12.78;100.00
5500;BME280;2772;42.700;23.304;2023-05-10T10:07:41;95413.97;;;12.95;100.00
5500;BME280;2772;42.700;23.304;2023-05-10T10:10:09;95413.88;;;13.08;100.00
5500;BME280;2772;42.700;23.304;2023-05-10T10:12:40;95416.38;;;13.05;100.00
5500;BME280;2772;42.700;23.304;2023-05-10T10:15:08;95391.81;;;13.20;100.00
5500;BME280;2772;42.700;23.304;2023-05-10T10:17:36;95405.19;;;13.20;100.00
5500;BME280;2772;42.700;23.304;2023-05-10T10:20:07;95406.47;;;13.31;100.00
5500;BME280;2772;42.700;23.304;2023-05-10T10:22:34;95408.34;;;13.39;100.00
5500;BME280;2772;42.700;23.304;2023-05-10T10:25:01;95415.44;;;13.52;100.00
5500;BME280;2772;42.700;23.304;2023-05-10T10:27:44;95405.69;;;13.47;100.00
5500;BME280;2772;42.700;23.304;2023-05-10T10:30:23;95413.88;;;13.25;100.00
5500;BME280;2772;42.700;23.304;2023-05-10T10:35:58;95411.03;;;13.47;100.00
5500;BME280;2772;42.700;23.304;2023-05-10T10:38:36;95413.53;;;13.52;100.00
5500;BME280;2772;42.700;23.304;2023-05-10T10:41:09;95415.28;;;13.31;100.00
5500;BME280;2772;42.700;23.304;2023-05-10T10:43:35;95411.97;;;13.34;100.00
5500;BME280;2772;42.700;23.304;2023-05-10T10:46:10;95417.78;;;13.45;100.00
5500;BME280;2772;42.700;23.304;2023-05-10T10:48:37;95419.97;;;13.60;100.00
5500;BME280;2772;42.700;23.304;2023-05-10T10:51:05;95417.78;;;13.53;100.00
5500;BME280;2772;42.700;23.304;2023-05-10T10:53:32;95420.28;;;13.58;100.00
5500;BME280;2772;42.700;23.304;2023-05-10T10:56:07;95417.91;;;13.57;100.00
5500;BME280;2772;42.700;23.304;2023-05-10T10:58:35;95419.34;;;13.46;100.00
5500;BME280;2772;42.700;23.304;2023-05-10T11:01:12;95417.19;;;13.22;100.00
5500;BME280;2772;42.700;23.304;2023-05-10T11:03:40;95411.19;;;13.25;100.00
5500;BME280;2772;42.700;23.304;2023-05-10T11:06:08;95420.78;;;13.43;100.00
5500;BME280;2772;42.700;23.304;2023-05-10T11:08:41;95410.53;;;13.54;100.00
5500;BME280;2772;42.700;23.304;2023-05-10T11:11:09;95415.75;;;13.50;100.00
5500;BME280;2772;42.700;23.304;2023-05-10T11:13:40;95416.03;;;13.66;100.00
5500;BME280;2772;42.700;23.304;2023-05-10T11:16:15;95416.03;;;13.57;100.00
5500;BME280;2772;42.700;23.304;2023-05-10T11:18:53;95412.25;;;13.67;100.00
5500;BME280;2772;42.700;23.304;2023-05-10T11:21:21;95402.63;;;13.74;100.00
5500;BME280;2772;42.700;23.304;2023-05-10T11:23:50;95411.59;;;13.78;100.00
5500;BME280;2772;42.700;23.304;2023-05-10T11:26:17;95417.59;;;13.75;100.00
5500;BME280;2772;42.700;23.304;2023-05-10T11:28:45;95415.38;;;13.77;100.00
5500;BME280;2772;42.700;23.304;2023-05-10T11:31:13;95415.38;;;13.77;100.00
5500;BME280;2772;42.700;23.304;2023-05-10T11:33:43;95417.91;;;13.65;100.00
5500;BME280;2772;42.700;23.304;2023-05-10T11:36:11;95419.97;;;13.60;100.00
5500;BME280;2772;42.700;23.304;2023-05-10T11:38:39;95417.59;;;13.75;100.00
5500;BME280;2772;42.700;23.304;2023-05-10T11:41:08;95415.53;;;13.81;100.00
5500;BME280;2772;42.700;23.304;2023-05-10T11:43:35;95414.75;;;13.63;100.00
5500;BME280;2772;42.700;23.304;2023-05-10T11:46:04;95406.28;;;13.44;100.00
5500;BME280;2772;42.700;23.304;2023-05-10T11:48:31;95405.03;;;13.67;100.00
5500;BME280;2772;42.700;23.304;2023-05-10T11:50:58;95411.31;;;13.63;100.00
5500;BME280;2772;42.700;23.304;2023-05-10T11:53:25;95411.19;;;13.42;100.00
5500;BME280;2772;42.700;23.304;2023-05-10T11:55:53;95392.25;;;13.73;100.00
5500;BME280;2772;42.700;23.304;2023-05-10T11:58:20;95392.56;;;13.80;100.00
5500;BME280;2772;42.700;23.304;2023-05-10T12:00:49;95393.50;;;13.58;100.00
5500;BME280;2772;42.700;23.304;2023-05-10T12:03:16;95401.53;;;13.58;100.00
5500;BME280;2772;42.700;23.304;2023-05-10T12:05:43;95403.13;;;13.59;100.00
5500;BME280;2772;42.700;23.304;2023-05-10T12:08:11;95398.56;;;13.60;100.00
5500;BME280;2772;42.700;23.304;2023-05-10T12:10:37;95387.69;;;13.65;100.00
5500;BME280;2772;42.700;23.304;2023-05-10T12:13:10;95394.44;;;13.79;100.00
5500;BME280;2772;42.700;23.304;2023-05-10T12:15:37;95391.75;;;13.79;100.00
5500;BME280;2772;42.700;23.304;2023-05-10T12:18:04;95396.47;;;13.74;100.00
5500;BME280;2772;42.700;23.304;2023-05-10T12:20:31;95392.72;;;13.75;100.00
5500;BME280;2772;42.700;23.304;2023-05-10T12:22:58;95401.84;;;13.65;100.00
5500;BME280;2772;42.700;23.304;2023-05-10T12:25:30;95396.50;;;13.65;100.00
5500;BME280;2772;42.700;23.304;2023-05-10T12:27:59;95394.75;;;13.78;100.00
5500;BME280;2772;42.700;23.304;2023-05-10T12:30:28;95391.44;;;13.72;100.00
5500;BME280;2772;42.700;23.304;2023-05-10T12:33:00;95380.41;;;13.82;100.00
5500;BME280;2772;42.700;23.304;2023-05-10T12:35:30;95384.47;;;13.88;100.00
5500;BME280;2772;42.700;23.304;2023-05-10T12:37:57;95382.00;;;13.66;100.00
5500;BME280;2772;42.700;23.304;2023-05-10T12:40:24;95374.31;;;13.65;100.00
5500;BME280;2772;42.700;23.304;2023-05-10T12:42:52;95379.84;;;13.43;100.00
5500;BME280;2772;42.700;23.304;2023-05-10T12:45:18;95375.44;;;13.38;100.00
5500;BME280;2772;42.700;23.304;2023-05-10T12:47:46;95375.28;;;13.52;100.00
5500;BME280;2772;42.700;23.304;2023-05-10T12:50:13;95385.00;;;13.65;100.00
5500;BME280;2772;42.700;23.304;2023-05-10T12:52:40;95363.28;;;13.66;100.00
5500;BME280;2772;42.700;23.304;2023-05-10T12:55:07;95358.59;;;13.46;100.00
5500;BME280;2772;42.700;23.304;2023-05-10T12:57:34;95366.63;;;13.46;100.00
5500;BME280;2772;42.700;23.304;2023-05-10T13:00:01;95369.28;;;13.63;100.00
5500;BME280;2772;42.700;23.304;2023-05-10T13:02:28;95363.00;;;13.59;100.00
5500;BME280;2772;42.700;23.304;2023-05-10T13:04:56;95363.47;;;13.44;100.00
5500;BME280;2772;42.700;23.304;2023-05-10T13:07:22;95360.47;;;13.54;100.00
5500;BME280;2772;42.700;23.304;2023-05-10T13:09:49;95354.31;;;13.62;100.00
5500;BME280;2772;42.700;23.304;2023-05-10T13:12:16;95350.53;;;13.63;100.00
5500;BME280;2772;42.700;23.304;2023-05-10T13:14:42;95354.47;;;13.66;100.00